sensor_id;sensor_type;location;lat;lon;timestamp;temperature;humidity
6520;DHT22;3293;51.690;5.982;2024-01-10T00:03:25;-4.00;82.70
6520;DHT22;3293;51.690;5.982;2024-01-10T00:08:25;-4.00;83.80
6520;DHT22;3293;51.690;5.982;2024-01-10T00:13:25;-4.00;84.00
6520;DHT22;3293;51.690;5.982;2024-01-10T00:18:25;-4.00;84.10
6520;DHT22;3293;51.690;5.982;2024-01-10T00:23:25;-4.10;85.60
6520;DHT22;3293;51.690;5.982;2024-01-10T00:28:25;-4.00;84.20
6520;DHT22;3293;51.690;5.982;2024-01-10T00:33:25;-4.10;84.20
6520;DHT22;3293;51.690;5.982;2024-01-10T00:38:25;-4.10;83.90
6520;DHT22;3293;51.690;5.982;2024-01-10T00:43:25;-4.00;82.90
6520;DHT22;3293;51.690;5.982;2024-01-10T00:48:25;-4.00;84.70
6520;DHT22;3293;51.690;5.982;2024-01-10T00:53:25;-4.10;86.10
6520;DHT22;3293;51.690;5.982;2024-01-10T00:58:25;-4.10;86.90
6520;DHT22;3293;51.690;5.982;2024-01-10T01:03:25;-4.10;85.60
6520;DHT22;3293;51.690;5.982;2024-01-10T01:08:25;-4.10;88.60
6520;DHT22;3293;51.690;5.982;2024-01-10T01:13:25;-4.20;89.40
6520;DHT22;3293;51.690;5.982;2024-01-10T01:18:24;-4.20;90.60
6520;DHT22;3293;51.690;5.982;2024-01-10T01:23:24;-4.20;90.60
6520;DHT22;3293;51.690;5.982;2024-01-10T01:28:24;-4.20;91.70
6520;DHT22;3293;51.690;5.982;2024-01-10T01:33:24;-4.30;91.80
6520;DHT22;3293;51.690;5.982;2024-01-10T01:38:25;-4.30;92.70
6520;DHT22;3293;51.690;5.982;2024-01-10T01:43:26;-4.30;93.20
6520;DHT22;3293;51.690;5.982;2024-01-10T01:48:26;-4.40;94.10
6520;DHT22;3293;51.690;5.982;2024-01-10T01:53:26;-4.40;94.20
6520;DHT22;3293;51.690;5.982;2024-01-10T01:58:28;-4.40;94.90
6520;DHT22;3293;51.690;5.982;2024-01-10T02:03:30;-4.40;94.70
6520;DHT22;3293;51.690;5.982;2024-01-10T02:08:32;-4.40;95.20
6520;DHT22;3293;51.690;5.982;2024-01-10T02:13:33;-4.40;94.80
6520;DHT22;3293;51.690;5.982;2024-01-10T02:18:34;-4.40;94.90
6520;DHT22;3293;51.690;5.982;2024-01-10T02:23:34;-4.40;94.70
6520;DHT22;3293;51.690;5.982;2024-01-10T02:28:34;-4.30;94.70
6520;DHT22;3293;51.690;5.982;2024-01-10T02:33:34;-4.40;95.30
6520;DHT22;3293;51.690;5.982;2024-01-10T02:38:34;-4.50;95.40
6520;DHT22;3293;51.690;5.982;2024-01-10T02:43:35;-4.40;95.50
6520;DHT22;3293;51.690;5.982;2024-01-10T02:48:34;-4.40;95.70
6520;DHT22;3293;51.690;5.982;2024-01-10T02:53:34;-4.40;95.90
6520;DHT22;3293;51.690;5.982;2024-01-10T02:58:34;-4.50;96.20
6520;DHT22;3293;51.690;5.982;2024-01-10T03:03:34;-4.40;95.50
6520;DHT22;3293;51.690;5.982;2024-01-10T03:08:34;-4.40;96.30
6520;DHT22;3293;51.690;5.982;2024-01-10T03:13:34;-4.50;96.40
6520;DHT22;3293;51.690;5.982;2024-01-10T03:18:34;-4.40;96.50
6520;DHT22;3293;51.690;5.982;2024-01-10T03:23:34;-4.50;97.00
6520;DHT22;3293;51.690;5.982;2024-01-10T03:28:33;-4.50;97.60
6520;DHT22;3293;51.690;5.982;2024-01-10T03:33:34;-4.50;97.60
6520;DHT22;3293;51.690;5.982;2024-01-10T03:38:34;-4.60;97.90
6520;DHT22;3293;51.690;5.982;2024-01-10T03:43:33;-4.50;98.00
6520;DHT22;3293;51.690;5.982;2024-01-10T03:48:33;-4.60;98.50
6520;DHT22;3293;51.690;5.982;2024-01-10T03:53:33;-4.60;98.80
6520;DHT22;3293;51.690;5.982;2024-01-10T03:58:34;-4.60;99.00
6520;DHT22;3293;51.690;5.982;2024-01-10T04:03:34;-4.70;99.60
6520;DHT22;3293;51.690;5.982;2024-01-10T04:08:34;-4.70;99.90
6520;DHT22;3293;51.690;5.982;2024-01-10T04:13:35;-4.80;99.90
6520;DHT22;3293;51.690;5.982;2024-01-10T04:18:35;-4.70;99.90
6520;DHT22;3293;51.690;5.982;2024-01-10T04:23:35;-4.80;99.90
6520;DHT22;3293;51.690;5.982;2024-01-10T04:28:35;-4.80;99.90
6520;DHT22;3293;51.690;5.982;2024-01-10T04:33:35;-4.80;99.90
6520;DHT22;3293;51.690;5.982;2024-01-10T04:38:36;-4.80;99.90
6520;DHT22;3293;51.690;5.982;2024-01-10T04:43:35;-4.90;99.90
6520;DHT22;3293;51.690;5.982;2024-01-10T04:48:36;-4.90;99.90
6520;DHT22;3293;51.690;5.982;2024-01-10T04:53:36;-4.90;99.90
6520;DHT22;3293;51.690;5.982;2024-01-10T04:58:36;-4.90;99.90
6520;DHT22;3293;51.690;5.982;2024-01-10T05:03:36;-5.00;99.90
6520;DHT22;3293;51.690;5.982;2024-01-10T05:08:36;-5.10;99.90
6520;DHT22;3293;51.690;5.982;2024-01-10T05:13:36;-5.00;99.90
6520;DHT22;3293;51.690;5.982;2024-01-10T05:18:36;-5.00;99.90
6520;DHT22;3293;51.690;5.982;2024-01-10T05:23:36;-5.00;99.90
6520;DHT22;3293;51.690;5.982;2024-01-10T05:28:38;-5.10;99.90
6520;DHT22;3293;51.690;5.982;2024-01-10T05:33:38;-5.20;99.90
6520;DHT22;3293;51.690;5.982;2024-01-10T05:38:38;-5.20;99.90
6520;DHT22;3293;51.690;5.982;2024-01-10T05:43:38;-5.20;99.90
6520;DHT22;3293;51.690;5.982;2024-01-10T05:48:38;-5.20;99.90
6520;DHT22;3293;51.690;5.982;2024-01-10T05:53:37;-5.20;99.90
6520;DHT22;3293;51.690;5.982;2024-01-10T05:58:37;-5.20;99.90
6520;DHT22;3293;51.690;5.982;2024-01-10T06:03:37;-5.30;99.90
6520;DHT22;3293;51.690;5.982;2024-01-10T06:08:38;-5.20;99.90
6520;DHT22;3293;51.690;5.982;2024-01-10T06:13:38;-5.20;99.90
6520;DHT22;3293;51.690;5.982;2024-01-10T06:18:39;-5.10;99.90
6520;DHT22;3293;51.690;5.982;2024-01-10T06:23:38;-5.20;99.90
6520;DHT22;3293;51.690;5.982;2024-01-10T06:28:38;-5.10;99.90
6520;DHT22;3293;51.690;5.982;2024-01-10T06:33:38;-5.10;99.90
6520;DHT22;3293;51.690;5.982;2024-01-10T06:38:39;-5.10;99.90
6520;DHT22;3293;51.690;5.982;2024-01-10T06:43:39;-5.20;99.90
6520;DHT22;3293;51.690;5.982;2024-01-10T06:48:40;-5.10;99.90
6520;DHT22;3293;51.690;5.982;2024-01-10T06:53:40;-5.20;99.90
6520;DHT22;3293;51.690;5.982;2024-01-10T06:58:40;-5.20;99.90
6520;DHT22;3293;51.690;5.982;2024-01-10T07:03:40;-5.20;99.90
6520;DHT22;3293;51.690;5.982;2024-01-10T07:08:41;-5.30;99.90
6520;DHT22;3293;51.690;5.982;2024-01-10T07:13:42;-5.30;99.90
6520;DHT22;3293;51.690;5.982;2024-01-10T07:18:42;-5.30;99.90
6520;DHT22;3293;51.690;5.982;2024-01-10T07:23:42;-5.30;99.90
6520;DHT22;3293;51.690;5.982;2024-01-10T07:28:43;-5.20;99.90
6520;DHT22;3293;51.690;5.982;2024-01-10T07:33:43;-5.20;99.90
6520;DHT22;3293;51.690;5.982;2024-01-10T07:38:43;-5.30;99.90
6520;DHT22;3293;51.690;5.982;2024-01-10T07:43:43;-5.40;99.90
6520;DHT22;3293;51.690;5.982;2024-01-10T07:48:43;-5.30;99.90
6520;DHT22;3293;51.690;5.982;2024-01-10T07:53:43;-5.30;99.90
6520;DHT22;3293;51.690;5.982;2024-01-10T07:58:43;-5.40;99.90
6520;DHT22;3293;51.690;5.982;2024-01-10T08:03:43;-5.40;99.90
6520;DHT22;3293;51.690;5.982;2024-01-10T08:08:42;-5.30;99.90
6520;DHT22;3293;51.690;5.982;2024-01-10T08:13:42;-5.30;99.90
6520;DHT22;3293;51.690;5.982;2024-01-10T08:18:42;-5.20;99.90
6520;DHT22;3293;51.690;5.982;2024-01-10T08:23:42;-5.20;99.90
6520;DHT22;3293;51.690;5.982;2024-01-10T08:28:42;-5.10;99.90
6520;DHT22;3293;51.690;5.982;2024-01-10T08:33:42;-5.10;99.90
6520;DHT22;3293;51.690;5.982;2024-01-10T08:38:42;-5.00;99.90
6520;DHT22;3293;51.690;5.982;2024-01-10T08:43:42;-4.90;99.90
6520;DHT22;3293;51.690;5.982;2024-01-10T08:48:42;-4.80;99.90
6520;DHT22;3293;51.690;5.982;2024-01-10T08:53:43;-4.80;99.90
6520;DHT22;3293;51.690;5.982;2024-01-10T08:58:43;-4.60;99.90
6520;DHT22;3293;51.690;5.982;2024-01-10T09:03:43;-4.50;99.90
6520;DHT22;3293;51.690;5.982;2024-01-10T09:08:43;-4.40;99.90
6520;DHT22;3293;51.690;5.982;2024-01-10T09:13:43;-4.30;99.60
6520;DHT22;3293;51.690;5.982;2024-01-10T09:18:43;-4.20;99.30
6520;DHT22;3293;51.690;5.982;2024-01-10T09:23:42;-4.10;98.70
6520;DHT22;3293;51.690;5.982;2024-01-10T09:28:42;-4.00;97.90
6520;DHT22;3293;51.690;5.982;2024-01-10T09:33:42;-3.80;97.00
6520;DHT22;3293;51.690;5.982;2024-01-10T09:38:42;-3.70;96.30
6520;DHT22;3293;51.690;5.982;2024-01-10T09:43:42;-3.60;95.10
6520;DHT22;3293;51.690;5.982;2024-01-10T09:48:42;-3.50;94.10
6520;DHT22;3293;51.690;5.982;2024-01-10T09:53:44;-3.40;93.60
6520;DHT22;3293;51.690;5.982;2024-01-10T09:58:48;-3.30;92.80
6520;DHT22;3293;51.690;5.982;2024-01-10T10:03:50;-3.20;92.00
6520;DHT22;3293;51.690;5.982;2024-01-10T10:08:50;-3.10;90.40
6520;DHT22;3293;51.690;5.982;2024-01-10T10:13:50;-3.00;88.30
6520;DHT22;3293;51.690;5.982;2024-01-10T10:18:50;-2.90;87.40
6520;DHT22;3293;51.690;5.982;2024-01-10T10:24:01;-2.70;84.30
6520;DHT22;3293;51.690;5.982;2024-01-10T10:29:03;-2.60;83.80
6520;DHT22;3293;51.690;5.982;2024-01-10T10:34:03;-2.40;80.00
6520;DHT22;3293;51.690;5.982;2024-01-10T10:39:03;-2.30;75.60
6520;DHT22;3293;51.690;5.982;2024-01-10T10:44:04;-2.20;69.90
6520;DHT22;3293;51.690;5.982;2024-01-10T10:49:11;-2.10;65.90
6520;DHT22;3293;51.690;5.982;2024-01-10T10:54:14;-2.00;65.40
6520;DHT22;3293;51.690;5.982;2024-01-10T10:59:16;-1.90;63.80
6520;DHT22;3293;51.690;5.982;2024-01-10T11:04:16;-1.80;62.80
6520;DHT22;3293;51.690;5.982;2024-01-10T11:09:18;-1.70;60.80
6520;DHT22;3293;51.690;5.982;2024-01-10T11:24:55;-1.40;58.40
6520;DHT22;3293;51.690;5.982;2024-01-10T11:29:55;-1.30;55.80
6520;DHT22;3293;51.690;5.982;2024-01-10T11:35:00;-1.20;55.30
6520;DHT22;3293;51.690;5.982;2024-01-10T11:40:00;-1.10;55.10
6520;DHT22;3293;51.690;5.982;2024-01-10T11:45:00;-1.10;54.80
6520;DHT22;3293;51.690;5.982;2024-01-10T11:50:02;-1.00;54.70
6520;DHT22;3293;51.690;5.982;2024-01-10T11:55:03;-0.90;52.40
6520;DHT22;3293;51.690;5.982;2024-01-10T12:00:07;-0.90;52.40
6520;DHT22;3293;51.690;5.982;2024-01-10T12:05:07;-0.80;52.50
6520;DHT22;3293;51.690;5.982;2024-01-10T12:10:08;-0.70;53.40
6520;DHT22;3293;51.690;5.982;2024-01-10T12:15:09;-0.60;50.90
6520;DHT22;3293;51.690;5.982;2024-01-10T12:20:09;-0.60;51.40
6520;DHT22;3293;51.690;5.982;2024-01-10T12:25:10;-0.50;51.10
6520;DHT22;3293;51.690;5.982;2024-01-10T12:30:10;-0.40;50.10
6520;DHT22;3293;51.690;5.982;2024-01-10T12:35:10;-0.40;50.10
6520;DHT22;3293;51.690;5.982;2024-01-10T12:40:10;-0.30;50.30
6520;DHT22;3293;51.690;5.982;2024-01-10T12:45:23;-0.20;49.40
6520;DHT22;3293;51.690;5.982;2024-01-10T12:50:23;-0.10;49.90
6520;DHT22;3293;51.690;5.982;2024-01-10T12:55:27;-0.10;51.00
6520;DHT22;3293;51.690;5.982;2024-01-10T13:00:27;0.00;50.10
6520;DHT22;3293;51.690;5.982;2024-01-10T13:05:28;0.10;49.00
6520;DHT22;3293;51.690;5.982;2024-01-10T13:10:28;0.20;47.80
6520;DHT22;3293;51.690;5.982;2024-01-10T13:15:28;0.30;45.60
6520;DHT22;3293;51.690;5.982;2024-01-10T13:20:28;0.30;43.70
6520;DHT22;3293;51.690;5.982;2024-01-10T13:25:28;0.40;42.80
6520;DHT22;3293;51.690;5.982;2024-01-10T13:30:28;0.30;44.00
6520;DHT22;3293;51.690;5.982;2024-01-10T13:35:28;0.40;43.50
6520;DHT22;3293;51.690;5.982;2024-01-10T13:40:28;0.50;43.50
6520;DHT22;3293;51.690;5.982;2024-01-10T13:45:28;0.50;41.00
6520;DHT22;3293;51.690;5.982;2024-01-10T13:50:28;0.60;40.50
6520;DHT22;3293;51.690;5.982;2024-01-10T13:55:30;0.50;41.20
6520;DHT22;3293;51.690;5.982;2024-01-10T14:00:30;0.60;40.10
6520;DHT22;3293;51.690;5.982;2024-01-10T14:05:30;0.60;39.00
6520;DHT22;3293;51.690;5.982;2024-01-10T14:10:30;0.50;40.10
6520;DHT22;3293;51.690;5.982;2024-01-10T14:15:30;0.50;40.40
6520;DHT22;3293;51.690;5.982;2024-01-10T14:20:29;0.60;40.40
6520;DHT22;3293;51.690;5.982;2024-01-10T14:25:30;0.50;41.10
6520;DHT22;3293;51.690;5.982;2024-01-10T14:30:29;0.50;41.00
6520;DHT22;3293;51.690;5.982;2024-01-10T14:35:29;0.50;41.00
6520;DHT22;3293;51.690;5.982;2024-01-10T14:40:29;0.60;40.70
6520;DHT22;3293;51.690;5.982;2024-01-10T14:45:29;0.50;41.80
6520;DHT22;3293;51.690;5.982;2024-01-10T14:50:29;0.50;42.60
6520;DHT22;3293;51.690;5.982;2024-01-10T14:55:29;0.30;44.20
6520;DHT22;3293;51.690;5.982;2024-01-10T15:00:29;0.20;44.90
6520;DHT22;3293;51.690;5.982;2024-01-10T15:05:29;0.10;45.70
6520;DHT22;3293;51.690;5.982;2024-01-10T15:10:29;0.20;45.00
6520;DHT22;3293;51.690;5.982;2024-01-10T15:15:30;0.10;46.50
6520;DHT22;3293;51.690;5.982;2024-01-10T15:20:32;-0.10;49.80
6520;DHT22;3293;51.690;5.982;2024-01-10T15:25:32;-0.20;50.00
6520;DHT22;3293;51.690;5.982;2024-01-10T15:30:33;-0.20;50.40
6520;DHT22;3293;51.690;5.982;2024-01-10T15:35:33;-0.20;51.40
6520;DHT22;3293;51.690;5.982;2024-01-10T15:40:33;-0.30;52.10
6520;DHT22;3293;51.690;5.982;2024-01-10T15:45:32;-0.40;52.80
6520;DHT22;3293;51.690;5.982;2024-01-10T15:50:33;-0.50;54.70
6520;DHT22;3293;51.690;5.982;2024-01-10T15:55:33;-0.70;56.50
6520;DHT22;3293;51.690;5.982;2024-01-10T16:00:34;-0.70;57.40
6520;DHT22;3293;51.690;5.982;2024-01-10T16:05:34;-0.80;57.70
6520;DHT22;3293;51.690;5.982;2024-01-10T16:10:34;-1.00;60.30
6520;DHT22;3293;51.690;5.982;2024-01-10T16:15:34;-1.00;62.50
6520;DHT22;3293;51.690;5.982;2024-01-10T16:20:34;-1.00;62.40
6520;DHT22;3293;51.690;5.982;2024-01-10T16:25:34;-1.10;64.80
6520;DHT22;3293;51.690;5.982;2024-01-10T16:30:34;-1.30;68.10
6520;DHT22;3293;51.690;5.982;2024-01-10T16:35:34;-1.30;68.70
6520;DHT22;3293;51.690;5.982;2024-01-10T16:40:34;-1.20;69.50
6520;DHT22;3293;51.690;5.982;2024-01-10T16:45:34;-1.30;71.80
6520;DHT22;3293;51.690;5.982;2024-01-10T16:50:35;-1.40;73.10
6520;DHT22;3293;51.690;5.982;2024-01-10T16:55:35;-1.50;76.90
6520;DHT22;3293;51.690;5.982;2024-01-10T17:00:35;-1.40;74.10
6520;DHT22;3293;51.690;5.982;2024-01-10T17:05:42;-1.30;71.30
6520;DHT22;3293;51.690;5.982;2024-01-10T17:10:43;-1.20;72.20
6520;DHT22;3293;51.690;5.982;2024-01-10T17:15:43;-1.30;74.30
6520;DHT22;3293;51.690;5.982;2024-01-10T17:20:42;-1.40;74.80
6520;DHT22;3293;51.690;5.982;2024-01-10T17:25:42;-1.50;79.50
6520;DHT22;3293;51.690;5.982;2024-01-10T17:30:43;-1.70;82.30
6520;DHT22;3293;51.690;5.982;2024-01-10T17:35:42;-1.80;85.00
6520;DHT22;3293;51.690;5.982;2024-01-10T17:40:43;-1.70;86.10
6520;DHT22;3293;51.690;5.982;2024-01-10T17:45:43;-1.70;87.60
6520;DHT22;3293;51.690;5.982;2024-01-10T17:50:43;-1.80;90.40
6520;DHT22;3293;51.690;5.982;2024-01-10T17:55:43;-1.90;90.90
6520;DHT22;3293;51.690;5.982;2024-01-10T18:00:43;-1.90;91.00
6520;DHT22;3293;51.690;5.982;2024-01-10T18:05:43;-1.90;91.50
6520;DHT22;3293;51.690;5.982;2024-01-10T18:10:43;-1.90;91.10
6520;DHT22;3293;51.690;5.982;2024-01-10T18:15:45;-1.90;90.50
6520;DHT22;3293;51.690;5.982;2024-01-10T18:20:45;-1.90;90.50
6520;DHT22;3293;51.690;5.982;2024-01-10T18:25:45;-1.90;91.20
6520;DHT22;3293;51.690;5.982;2024-01-10T18:30:48;-1.90;92.30
6520;DHT22;3293;51.690;5.982;2024-01-10T18:35:48;-1.90;92.20
6520;DHT22;3293;51.690;5.982;2024-01-10T18:40:50;-1.90;92.10
6520;DHT22;3293;51.690;5.982;2024-01-10T18:45:52;-2.00;93.40
6520;DHT22;3293;51.690;5.982;2024-01-10T18:50:52;-2.10;94.40
6520;DHT22;3293;51.690;5.982;2024-01-10T18:55:52;-2.10;95.00
6520;DHT22;3293;51.690;5.982;2024-01-10T19:00:51;-2.10;95.30
6520;DHT22;3293;51.690;5.982;2024-01-10T19:05:51;-2.10;95.30
6520;DHT22;3293;51.690;5.982;2024-01-10T19:10:52;-2.10;96.00
6520;DHT22;3293;51.690;5.982;2024-01-10T19:15:52;-2.20;96.70
6520;DHT22;3293;51.690;5.982;2024-01-10T19:20:51;-2.30;97.60
6520;DHT22;3293;51.690;5.982;2024-01-10T19:25:51;-2.30;97.80
6520;DHT22;3293;51.690;5.982;2024-01-10T19:30:51;-2.20;97.30
6520;DHT22;3293;51.690;5.982;2024-01-10T19:35:51;-2.20;97.50
6520;DHT22;3293;51.690;5.982;2024-01-10T19:40:51;-2.20;97.80
6520;DHT22;3293;51.690;5.982;2024-01-10T19:45:51;-2.30;98.00
6520;DHT22;3293;51.690;5.982;2024-01-10T19:50:51;-2.30;98.50
6520;DHT22;3293;51.690;5.982;2024-01-10T19:55:51;-2.30;98.30
6520;DHT22;3293;51.690;5.982;2024-01-10T20:00:51;-2.40;98.50
6520;DHT22;3293;51.690;5.982;2024-01-10T20:05:51;-2.40;98.70
6520;DHT22;3293;51.690;5.982;2024-01-10T20:10:51;-2.40;98.50
6520;DHT22;3293;51.690;5.982;2024-01-10T20:15:51;-2.40;98.80
6520;DHT22;3293;51.690;5.982;2024-01-10T20:20:51;-2.50;99.20
6520;DHT22;3293;51.690;5.982;2024-01-10T20:25:51;-2.50;99.40
6520;DHT22;3293;51.690;5.982;2024-01-10T20:30:51;-2.50;99.10
6520;DHT22;3293;51.690;5.982;2024-01-10T20:35:51;-2.50;99.60
6520;DHT22;3293;51.690;5.982;2024-01-10T20:40:50;-2.50;99.40
6520;DHT22;3293;51.690;5.982;2024-01-10T20:45:50;-2.50;99.60
6520;DHT22;3293;51.690;5.982;2024-01-10T20:50:50;-2.50;99.70
6520;DHT22;3293;51.690;5.982;2024-01-10T20:55:51;-2.50;99.80
6520;DHT22;3293;51.690;5.982;2024-01-10T21:00:50;-2.70;99.90
6520;DHT22;3293;51.690;5.982;2024-01-10T21:05:51;-2.80;99.90
6520;DHT22;3293;51.690;5.982;2024-01-10T21:10:51;-2.80;99.90
6520;DHT22;3293;51.690;5.982;2024-01-10T21:15:51;-2.90;99.90
6520;DHT22;3293;51.690;5.982;2024-01-10T21:20:51;-3.00;99.90
6520;DHT22;3293;51.690;5.982;2024-01-10T21:25:51;-3.00;99.90
6520;DHT22;3293;51.690;5.982;2024-01-10T21:30:52;-3.00;99.90
6520;DHT22;3293;51.690;5.982;2024-01-10T21:35:52;-2.90;99.90
6520;DHT22;3293;51.690;5.982;2024-01-10T21:40:51;-3.00;99.90
6520;DHT22;3293;51.690;5.982;2024-01-10T21:45:52;-3.10;99.90
6520;DHT22;3293;51.690;5.982;2024-01-10T21:50:52;-3.20;99.90
6520;DHT22;3293;51.690;5.982;2024-01-10T21:55:52;-3.20;99.90
6520;DHT22;3293;51.690;5.982;2024-01-10T22:00:52;-3.30;99.90
6520;DHT22;3293;51.690;5.982;2024-01-10T22:05:52;-3.30;99.90
6520;DHT22;3293;51.690;5.982;2024-01-10T22:10:52;-3.30;99.90
6520;DHT22;3293;51.690;5.982;2024-01-10T22:15:52;-3.30;99.90
6520;DHT22;3293;51.690;5.982;2024-01-10T22:20:52;-3.40;99.90
6520;DHT22;3293;51.690;5.982;2024-01-10T22:25:52;-3.30;99.90
6520;DHT22;3293;51.690;5.982;2024-01-10T22:30:52;-3.30;99.90
6520;DHT22;3293;51.690;5.982;2024-01-10T22:35:52;-3.20;99.90
6520;DHT22;3293;51.690;5.982;2024-01-10T22:40:52;-3.30;99.90
6520;DHT22;3293;51.690;5.982;2024-01-10T22:45:52;-3.30;99.90
6520;DHT22;3293;51.690;5.982;2024-01-10T22:50:52;-3.40;99.90
6520;DHT22;3293;51.690;5.982;2024-01-10T22:55:52;-3.40;99.90
6520;DHT22;3293;51.690;5.982;2024-01-10T23:00:52;-3.30;99.90
6520;DHT22;3293;51.690;5.982;2024-01-10T23:05:52;-3.30;99.90
6520;DHT22;3293;51.690;5.982;2024-01-10T23:10:52;-3.40;99.90
6520;DHT22;3293;51.690;5.982;2024-01-10T23:15:52;-3.40;99.90
6520;DHT22;3293;51.690;5.982;2024-01-10T23:20:52;-3.40;99.90
6520;DHT22;3293;51.690;5.982;2024-01-10T23:25:52;-3.40;99.90
6520;DHT22;3293;51.690;5.982;2024-01-10T23:30:52;-3.50;99.90
6520;DHT22;3293;51.690;5.982;2024-01-10T23:35:52;-3.60;99.90
6520;DHT22;3293;51.690;5.982;2024-01-10T23:40:52;-3.60;99.90
6520;DHT22;3293;51.690;5.982;2024-01-10T23:45:52;-3.70;99.90
6520;DHT22;3293;51.690;5.982;2024-01-10T23:50:52;-3.70;99.90
6520;DHT22;3293;51.690;5.982;2024-01-10T23:55:52;-3.70;99.90
